Terminal Aerodrome Forecast
Issued by NWS Lubbock, TX

Home | Current Version | Previous Version | Text Only | Print | Product List | Glossary On
Versions: 1 2 3 4 5 6 7 8 9 10 11 12 13 14 15
000
FTUS44 KLUB 272300
TAFLBB
TAF
KLBB 272324Z 2800/2824 16006KT P6SM SCT080 BKN150
      TEMPO 2800/2802 -TSRA BKN080CB
     FM281500 20010KT P6SM BKN100 BKN250 PROB30 2820/2824 TSRA
      BKN060CB=

USA.gov is the U.S. government's official web portal to all federal, state and local government web resources and services.